createdAt,value
2018-01-21T00:00:51.263Z,16.30
2018-01-21T00:03:18.060Z,16.83
2018-01-21T00:05:44.927Z,17.42
2018-01-21T00:08:11.635Z,16.98
2018-01-21T00:10:37.867Z,16.37
2018-01-21T00:13:04.097Z,17.10
2018-01-21T00:15:30.236Z,16.67
2018-01-21T00:17:57.058Z,14.55
2018-01-21T00:20:24.021Z,17.05
2018-01-21T00:22:50.922Z,16.58
2018-01-21T00:25:16.914Z,16.45
2018-01-21T00:27:42.917Z,17.60
2018-01-21T00:30:09.684Z,17.15
2018-01-21T00:32:36.592Z,17.20
2018-01-21T00:35:06.709Z,17.35
2018-01-21T00:37:32.731Z,18.17
2018-01-21T00:39:59.366Z,17.67
2018-01-21T00:42:25.435Z,16.37
2018-01-21T00:44:51.443Z,17.33
2018-01-21T00:47:17.437Z,16.45
2018-01-21T00:49:43.472Z,17.87
2018-01-21T00:52:09.498Z,15.98
2018-01-21T00:54:36.876Z,18.20
2018-01-21T00:57:03.055Z,17.58
2018-01-21T00:59:29.242Z,17.33
2018-01-21T01:01:55.286Z,15.63
2018-01-21T01:04:21.307Z,16.50
2018-01-21T01:06:49.133Z,15.48
2018-01-21T01:09:15.144Z,17.25
2018-01-21T01:11:41.133Z,14.68
2018-01-21T01:14:07.246Z,15.55
2018-01-21T01:16:33.303Z,15.60
2018-01-21T01:19:00.054Z,15.15
2018-01-21T01:21:26.058Z,14.75
2018-01-21T01:23:52.802Z,15.23
2018-01-21T01:26:19.537Z,15.00
2018-01-21T01:28:46.459Z,15.02
2018-01-21T01:31:13.224Z,13.90
2018-01-21T01:33:39.305Z,13.90
2018-01-21T01:36:05.285Z,14.50
2018-01-21T01:38:31.282Z,13.40
2018-01-21T01:40:57.339Z,13.20
2018-01-21T01:43:23.377Z,13.65
2018-01-21T01:45:49.601Z,13.18
2018-01-21T01:48:15.667Z,14.82
2018-01-21T01:50:41.696Z,13.20
2018-01-21T01:53:08.539Z,12.77
2018-01-21T01:55:34.714Z,11.68
2018-01-21T01:58:00.733Z,11.85
2018-01-21T02:00:27.687Z,11.12
2018-01-21T02:02:53.658Z,11.12
2018-01-21T02:05:20.941Z,9.70
2018-01-21T02:07:47.021Z,7.97
2018-01-21T02:10:13.058Z,7.22
2018-01-21T02:12:39.125Z,7.90
2018-01-21T02:15:05.743Z,6.15
2018-01-21T02:17:34.736Z,6.35
2018-01-21T02:20:00.782Z,7.20
2018-01-21T02:22:26.898Z,5.60
2018-01-21T02:24:52.907Z,6.35
2018-01-21T02:27:19.811Z,5.70
2018-01-21T02:29:46.754Z,5.20
2018-01-21T02:32:12.748Z,7.10
2018-01-21T02:34:38.743Z,6.67
2018-01-21T02:37:05.038Z,7.78
2018-01-21T02:39:31.077Z,8.55
2018-01-21T02:41:57.142Z,8.00
2018-01-21T02:44:23.115Z,9.38
2018-01-21T02:46:49.135Z,8.13
2018-01-21T02:49:15.923Z,9.60
2018-01-21T02:51:41.947Z,9.40
2018-01-21T02:54:08.152Z,9.43
2018-01-21T02:56:35.043Z,11.10
2018-01-21T02:59:01.072Z,10.95
2018-01-21T03:01:27.099Z,10.90
2018-01-21T03:03:53.111Z,10.82
2018-01-21T03:06:19.366Z,11.43
2018-01-21T03:08:45.410Z,11.80
2018-01-21T03:11:11.383Z,11.95
2018-01-21T03:13:37.796Z,11.67
2018-01-21T03:16:03.974Z,13.15
2018-01-21T03:18:30.075Z,11.40
2018-01-21T03:20:56.464Z,14.27
2018-01-21T03:23:22.428Z,14.70
2018-01-21T03:25:48.424Z,13.70
2018-01-21T03:28:14.390Z,13.60
2018-01-21T03:30:40.442Z,14.23
2018-01-21T03:33:06.459Z,16.37
2018-01-21T03:35:32.455Z,15.52
2018-01-21T03:37:59.993Z,16.30
2018-01-21T03:40:25.998Z,15.00
2018-01-21T03:42:52.021Z,14.70
2018-01-21T03:45:18.207Z,15.30
2018-01-21T03:47:44.219Z,13.00
2018-01-21T03:50:10.917Z,8.23
2018-01-21T03:52:36.937Z,6.85
2018-01-21T03:55:03.090Z,10.38
2018-01-21T03:57:30.014Z,9.13
2018-01-21T03:59:57.256Z,5.70
2018-01-21T04:02:23.258Z,6.62
2018-01-21T04:04:50.239Z,7.72
2018-01-21T04:07:16.981Z,7.00
2018-01-21T04:09:43.691Z,6.15
2018-01-21T04:12:10.274Z,4.87
2018-01-21T04:14:37.390Z,5.75
2018-01-21T04:17:03.427Z,6.20
2018-01-21T04:19:30.276Z,5.90
2018-01-21T04:21:57.348Z,7.37
2018-01-21T04:24:23.391Z,6.95
2018-01-21T04:26:49.403Z,7.30
2018-01-21T04:29:15.399Z,7.80
2018-01-21T04:31:41.424Z,8.38
2018-01-21T04:34:08.012Z,7.97
2018-01-21T04:36:34.000Z,8.45
2018-01-21T04:39:00.950Z,7.53
2018-01-21T04:41:27.178Z,9.50
2018-01-21T04:43:53.153Z,9.05
2018-01-21T04:46:19.172Z,7.83
2018-01-21T04:48:45.248Z,7.95
2018-01-21T04:51:11.296Z,8.98
2018-01-21T04:53:38.234Z,9.23
2018-01-21T04:56:04.213Z,11.00
2018-01-21T04:58:30.330Z,9.50
2018-01-21T05:00:56.512Z,10.95
2018-01-21T05:03:22.518Z,10.90
2018-01-21T05:05:48.506Z,11.68
2018-01-21T05:08:14.847Z,11.32
2018-01-21T05:10:41.768Z,11.45
2018-01-21T05:13:08.535Z,10.18
2018-01-21T05:15:34.644Z,11.73
2018-01-21T05:18:00.686Z,10.88
2018-01-21T05:20:26.791Z,9.57
2018-01-21T05:22:54.236Z,9.85
2018-01-21T05:25:22.203Z,9.45
2018-01-21T05:27:48.260Z,9.57
2018-01-21T05:30:14.269Z,9.27
2018-01-21T05:32:40.310Z,10.32
2018-01-21T05:35:06.330Z,9.10
2018-01-21T05:37:32.546Z,8.73
2018-01-21T05:39:58.786Z,9.30
2018-01-21T05:42:24.766Z,9.57
2018-01-21T05:44:50.793Z,8.90
2018-01-21T05:47:16.877Z,9.15
2018-01-21T05:49:42.900Z,10.50
2018-01-21T05:52:08.990Z,8.40
2018-01-21T05:54:35.139Z,7.75
2018-01-21T05:57:02.123Z,8.88
2018-01-21T05:59:28.228Z,8.90
2018-01-21T06:01:54.295Z,9.68
2018-01-21T06:04:21.030Z,9.13
2018-01-21T06:06:47.612Z,10.20
2018-01-21T06:09:15.117Z,7.60
2018-01-21T06:11:42.078Z,9.68
2018-01-21T06:14:08.104Z,7.85
2018-01-21T06:16:34.124Z,8.00
2018-01-21T06:19:00.824Z,7.00
2018-01-21T06:21:26.807Z,7.50
2018-01-21T06:23:52.820Z,7.40
2018-01-21T06:26:18.846Z,6.97
2018-01-21T06:28:44.810Z,7.00
2018-01-21T06:31:10.861Z,7.67
2018-01-21T06:33:37.125Z,7.15
2018-01-21T06:36:03.548Z,7.35
2018-01-21T06:38:29.636Z,6.90
2018-01-21T06:40:55.688Z,6.25
2018-01-21T06:43:21.798Z,6.93
2018-01-21T06:45:48.418Z,5.82
2018-01-21T06:48:14.437Z,7.12
2018-01-21T06:50:40.393Z,6.43
2018-01-21T06:53:06.412Z,5.33
2018-01-21T06:55:33.155Z,6.37
2018-01-21T06:57:59.212Z,5.40
2018-01-21T07:00:25.392Z,5.50
2018-01-21T07:02:51.439Z,5.37
2018-01-21T07:05:17.434Z,5.40
2018-01-21T07:07:44.267Z,5.13
2018-01-21T07:10:11.315Z,5.20
2018-01-21T07:12:38.898Z,4.85
2018-01-21T07:15:04.981Z,6.37
2018-01-21T07:17:31.335Z,5.20
2018-01-21T07:19:58.242Z,4.65
2018-01-21T07:22:24.281Z,4.37
2018-01-21T07:24:50.323Z,4.22
2018-01-21T07:27:17.932Z,4.40
2018-01-21T07:29:43.986Z,4.37
2018-01-21T07:32:10.076Z,3.90
2018-01-21T07:34:36.349Z,4.85
2018-01-21T07:37:02.358Z,4.90
2018-01-21T07:39:28.450Z,14.95
2018-01-21T07:41:55.674Z,4.53
2018-01-21T07:44:21.734Z,4.78
2018-01-21T07:46:48.213Z,4.75
2018-01-21T07:49:14.982Z,4.72
2018-01-21T07:51:40.992Z,4.57
2018-01-21T07:54:07.015Z,6.05
2018-01-21T07:56:33.385Z,5.65
2018-01-21T07:58:59.377Z,5.62
2018-01-21T08:01:27.019Z,5.82
2018-01-21T08:03:53.412Z,6.30
2018-01-21T08:06:21.856Z,5.60
2018-01-21T08:08:48.842Z,5.30
2018-01-21T08:11:15.084Z,5.95
2018-01-21T08:13:44.534Z,7.07
2018-01-21T08:16:12.709Z,6.68
2018-01-21T08:18:38.811Z,6.85
2018-01-21T08:21:04.987Z,7.07
2018-01-21T08:23:31.081Z,6.60
2018-01-21T08:25:57.848Z,7.22
2018-01-21T08:28:25.358Z,6.50
2018-01-21T08:30:57.842Z,5.55
2018-01-21T08:33:24.079Z,6.40
2018-01-21T08:39:06.243Z,9.73
2018-01-21T08:41:42.326Z,7.87
2018-01-21T08:44:08.592Z,6.97
2018-01-21T08:46:34.718Z,7.25
2018-01-21T08:49:03.399Z,7.53
2018-01-21T08:51:31.404Z,8.23
2018-01-21T08:53:58.454Z,6.13
2018-01-21T08:56:26.594Z,7.00
2018-01-21T08:58:53.229Z,7.87
2018-01-21T09:01:20.286Z,7.40
2018-01-21T09:03:47.026Z,8.45
2018-01-21T09:06:14.968Z,8.30
2018-01-21T09:08:43.873Z,7.78
2018-01-21T09:11:12.828Z,10.38
2018-01-21T09:13:39.349Z,8.87
2018-01-21T09:16:06.128Z,9.85
2018-01-21T09:18:33.320Z,9.40
2018-01-21T09:20:59.460Z,8.82
2018-01-21T09:23:26.357Z,6.55
2018-01-21T09:25:52.929Z,7.93
2018-01-21T09:28:20.748Z,8.38
2018-01-21T09:30:47.336Z,8.70
2018-01-21T09:33:13.455Z,7.40
2018-01-21T09:35:39.747Z,7.75
2018-01-21T09:40:38.750Z,7.00
2018-01-21T09:43:05.167Z,7.70
2018-01-21T09:48:09.243Z,6.78
2018-01-21T09:53:06.899Z,7.15
2018-01-21T09:55:34.699Z,7.37
2018-01-21T09:58:00.767Z,7.07
2018-01-21T10:00:26.909Z,7.00
2018-01-21T10:02:54.887Z,6.75
2018-01-21T10:05:21.006Z,6.95
2018-01-21T10:07:49.793Z,6.95
2018-01-21T10:10:18.891Z,8.13
2018-01-21T10:12:45.207Z,9.52
2018-01-21T10:15:11.226Z,9.10
2018-01-21T10:17:37.968Z,10.25
2018-01-21T10:20:04.011Z,9.95
2018-01-21T10:22:30.171Z,8.88
2018-01-21T10:24:56.163Z,9.57
2018-01-21T10:27:22.506Z,9.97
2018-01-21T10:29:48.636Z,11.17
2018-01-21T10:32:14.580Z,9.57
2018-01-21T10:34:41.423Z,9.33
2018-01-21T10:37:07.418Z,7.70
2018-01-21T10:39:34.092Z,9.65
2018-01-21T10:42:00.210Z,9.00
2018-01-21T10:44:26.504Z,10.10
2018-01-21T10:46:52.868Z,9.52
2018-01-21T10:49:19.260Z,8.53
2018-01-21T10:51:45.292Z,9.30
2018-01-21T10:54:12.053Z,8.10
2018-01-21T10:56:38.178Z,8.02
2018-01-21T10:59:04.309Z,7.97
2018-01-21T11:01:31.130Z,7.57
2018-01-21T11:03:57.242Z,8.50
2018-01-21T11:06:24.437Z,8.00
2018-01-21T11:08:51.154Z,7.60
2018-01-21T11:11:17.158Z,7.00
2018-01-21T11:13:43.919Z,7.40
2018-01-21T11:16:10.795Z,7.43
2018-01-21T11:18:37.422Z,7.20
2018-01-21T11:21:03.383Z,6.77
2018-01-21T11:23:30.406Z,6.80
2018-01-21T11:25:57.007Z,10.00
2018-01-21T11:28:23.785Z,7.43
2018-01-21T11:30:49.889Z,8.50
2018-01-21T11:33:15.914Z,6.73
2018-01-21T11:35:43.031Z,6.40
2018-01-21T11:38:10.299Z,7.73
2018-01-21T11:40:37.121Z,6.70
2018-01-21T11:43:04.999Z,7.00
2018-01-21T11:45:31.890Z,6.37
2018-01-21T11:47:59.143Z,7.87
2018-01-21T11:50:25.226Z,7.60
2018-01-21T11:52:51.223Z,7.13
2018-01-21T11:55:17.433Z,6.30
2018-01-21T11:57:44.391Z,7.43
2018-01-21T12:02:52.413Z,7.17
2018-01-21T12:05:19.497Z,6.93
2018-01-21T12:07:46.462Z,6.00
2018-01-21T12:10:13.457Z,6.27
2018-01-21T12:12:40.726Z,5.60
2018-01-21T12:15:08.174Z,6.37
2018-01-21T12:17:34.828Z,5.73
2018-01-21T12:20:01.823Z,5.73
2018-01-21T12:22:27.785Z,7.20
2018-01-21T12:24:55.518Z,5.90
2018-01-21T12:27:22.234Z,5.50
2018-01-21T12:29:49.405Z,5.07
2018-01-21T12:32:15.478Z,4.47
2018-01-21T12:34:42.440Z,4.90
2018-01-21T12:37:10.001Z,4.93
2018-01-21T12:39:36.579Z,5.53
2018-01-21T12:42:02.775Z,5.70
2018-01-21T12:44:30.082Z,4.87
2018-01-21T12:46:59.360Z,4.70
2018-01-21T12:49:26.287Z,4.93
2018-01-21T12:51:52.567Z,4.50
2018-01-21T12:54:18.640Z,3.97
2018-01-21T12:56:44.702Z,4.17
2018-01-21T12:59:11.499Z,5.20
2018-01-21T13:01:37.935Z,4.80
2018-01-21T13:04:04.169Z,4.37
2018-01-21T13:06:34.505Z,4.00
2018-01-21T13:09:00.560Z,4.30
2018-01-21T13:11:29.105Z,3.80
2018-01-21T13:13:57.007Z,4.37
2018-01-21T13:16:24.822Z,4.37
2018-01-21T13:18:50.906Z,3.80
2018-01-21T13:21:18.615Z,3.70
2018-01-21T13:23:45.272Z,3.43
2018-01-21T13:26:11.283Z,3.10
2018-01-21T13:28:39.234Z,3.87
2018-01-21T13:31:05.559Z,2.90
2018-01-21T13:33:32.230Z,3.17
2018-01-21T13:35:59.013Z,2.87
2018-01-21T13:38:25.113Z,3.73
2018-01-21T13:40:51.339Z,3.60
2018-01-21T13:43:26.241Z,3.27
2018-01-21T13:45:52.582Z,2.73
2018-01-21T13:48:19.455Z,5.03
2018-01-21T13:50:46.103Z,4.53
2018-01-21T13:53:12.082Z,3.50
2018-01-21T13:55:38.320Z,2.60
2018-01-21T13:58:05.246Z,2.63
2018-01-21T14:00:31.814Z,2.50
2018-01-21T14:02:59.496Z,3.60
2018-01-21T14:05:25.703Z,3.23
2018-01-21T14:07:53.252Z,3.60
2018-01-21T14:10:19.858Z,3.20
2018-01-21T14:12:47.251Z,3.03
2018-01-21T14:15:14.507Z,2.80
2018-01-21T14:17:41.493Z,3.27
2018-01-21T14:20:09.530Z,2.93
2018-01-21T14:22:37.282Z,3.33
2018-01-21T14:25:05.382Z,3.23
2018-01-21T14:27:31.484Z,3.23
2018-01-21T14:29:58.405Z,5.23
2018-01-21T14:32:25.159Z,2.93
2018-01-21T14:34:51.168Z,3.70
2018-01-21T14:37:17.189Z,4.10
2018-01-21T14:39:43.392Z,3.07
2018-01-21T14:42:09.426Z,3.33
2018-01-21T14:44:35.468Z,3.60
2018-01-21T14:47:01.547Z,7.90
2018-01-21T14:49:31.771Z,3.70
2018-01-21T14:51:58.702Z,3.77
2018-01-21T14:56:58.076Z,3.60
2018-01-21T14:59:24.111Z,4.17
2018-01-21T15:01:50.686Z,3.67
2018-01-21T15:04:16.677Z,3.70
2018-01-21T15:06:42.928Z,3.90
2018-01-21T15:09:09.089Z,3.67
2018-01-21T15:14:07.829Z,3.87
2018-01-21T15:16:34.676Z,3.67
2018-01-21T15:19:01.062Z,5.57
2018-01-21T15:21:27.138Z,4.57
2018-01-21T15:23:54.951Z,4.47
2018-01-21T15:26:24.119Z,3.20
2018-01-21T15:28:51.239Z,3.77
2018-01-21T15:31:18.602Z,3.27
2018-01-21T15:36:21.335Z,3.47
2018-01-21T15:38:52.422Z,3.90
2018-01-21T15:41:19.998Z,3.60
2018-01-21T15:43:47.017Z,3.80
2018-01-21T15:46:14.024Z,4.03
2018-01-21T15:48:40.078Z,3.43
2018-01-21T15:51:12.293Z,4.27
2018-01-21T15:53:41.371Z,3.80
2018-01-21T15:56:07.747Z,3.97
2018-01-21T15:58:39.675Z,4.20
2018-01-21T16:01:06.104Z,4.27
2018-01-21T16:03:35.036Z,4.07
2018-01-21T16:06:01.128Z,4.30
2018-01-21T16:08:27.272Z,3.90
2018-01-21T16:10:54.483Z,4.40
2018-01-21T16:13:20.419Z,4.50
2018-01-21T16:15:46.906Z,4.80
2018-01-21T16:18:13.802Z,5.30
2018-01-21T16:23:13.602Z,4.90
2018-01-21T16:25:40.321Z,4.80
2018-01-21T16:28:06.348Z,5.50
2018-01-21T16:30:32.299Z,5.80
2018-01-21T16:32:58.345Z,4.93
2018-01-21T16:35:24.784Z,6.20
2018-01-21T16:38:03.662Z,5.13
2018-01-21T16:40:30.466Z,5.57
2018-01-21T16:42:56.390Z,5.60
2018-01-21T16:45:22.330Z,6.50
2018-01-21T16:47:53.197Z,5.40
2018-01-21T16:50:19.859Z,6.60
2018-01-21T16:52:47.499Z,5.70
2018-01-21T16:55:14.266Z,6.60
2018-01-21T16:57:43.154Z,6.30
2018-01-21T17:00:15.027Z,7.60
2018-01-21T17:02:43.698Z,6.00
2018-01-21T17:05:09.691Z,6.20
2018-01-21T17:07:36.797Z,6.07
2018-01-21T17:10:03.108Z,6.93
2018-01-21T17:15:01.525Z,5.70
2018-01-21T17:17:31.110Z,5.63
2018-01-21T17:19:58.059Z,7.27
2018-01-21T17:22:26.885Z,6.17
2018-01-21T17:25:02.808Z,6.33
2018-01-21T17:27:30.085Z,5.60
2018-01-21T17:29:59.352Z,6.00
2018-01-21T17:32:31.563Z,6.40
2018-01-21T17:35:02.898Z,6.60
2018-01-21T17:37:33.594Z,5.83
2018-01-21T17:40:03.586Z,6.10
2018-01-21T17:42:31.507Z,5.73
2018-01-21T17:44:58.465Z,6.07
2018-01-21T17:47:24.665Z,7.10
2018-01-21T17:49:51.327Z,5.93
2018-01-21T17:54:53.511Z,5.50
2018-01-21T17:57:19.715Z,5.90
2018-01-21T17:59:50.676Z,5.43
2018-01-21T18:02:18.140Z,5.73
2018-01-21T18:04:44.265Z,5.70
2018-01-21T18:07:10.355Z,4.83
2018-01-21T18:09:36.393Z,5.93
2018-01-21T18:12:03.815Z,5.87
2018-01-21T18:14:30.061Z,5.73
2018-01-21T18:16:56.109Z,6.53
2018-01-21T18:19:22.337Z,5.43
2018-01-21T18:21:48.338Z,13.00
2018-01-21T18:24:14.397Z,5.47
2018-01-21T18:26:47.644Z,5.40
2018-01-21T18:29:16.047Z,5.35
2018-01-21T18:31:46.030Z,5.30
2018-01-21T18:34:12.608Z,4.93
2018-01-21T18:36:39.664Z,5.40
2018-01-21T18:39:07.280Z,5.57
2018-01-21T18:41:34.282Z,5.70
2018-01-21T18:44:03.859Z,6.00
2018-01-21T18:46:29.835Z,5.37
2018-01-21T18:49:04.327Z,5.83
2018-01-21T18:51:31.322Z,5.80
2018-01-21T18:53:57.759Z,5.57
2018-01-21T18:56:25.590Z,5.80
2018-01-21T18:58:54.411Z,6.20
2018-01-21T19:01:21.459Z,6.20
2018-01-21T19:03:47.658Z,6.80
2018-01-21T19:06:15.711Z,6.40
2018-01-21T19:08:45.504Z,6.45
2018-01-21T19:11:16.478Z,5.72
2018-01-21T19:13:42.467Z,6.85
2018-01-21T19:16:11.423Z,6.47
2018-01-21T19:18:38.027Z,6.30
2018-01-21T19:21:05.832Z,6.70
2018-01-21T19:23:31.951Z,6.07
2018-01-21T19:26:00.600Z,5.83
2018-01-21T19:28:27.614Z,4.97
2018-01-21T19:30:56.662Z,4.97
2018-01-21T19:33:27.011Z,5.85
2018-01-21T19:35:53.536Z,6.70
2018-01-21T19:38:34.759Z,5.75
2018-01-21T19:41:06.362Z,7.27
2018-01-21T19:43:39.257Z,8.40
2018-01-21T19:46:07.121Z,11.07
2018-01-21T19:51:15.101Z,9.87
2018-01-21T19:53:41.120Z,14.68
2018-01-21T19:56:09.066Z,12.37
2018-01-21T19:58:35.281Z,12.00
2018-01-21T20:01:04.765Z,9.77
2018-01-21T20:03:31.082Z,8.35
2018-01-21T20:06:01.715Z,7.82
2018-01-21T20:10:59.326Z,8.90
2018-01-21T20:15:58.691Z,8.60
2018-01-21T20:18:26.093Z,8.18
2018-01-21T20:20:53.120Z,8.30
2018-01-21T20:23:19.879Z,7.30
2018-01-21T20:25:50.634Z,7.70
2018-01-21T20:28:18.702Z,9.40
2018-01-21T20:30:45.433Z,9.18
2018-01-21T20:33:13.232Z,12.40
2018-01-21T20:35:39.325Z,10.52
2018-01-21T20:38:07.009Z,9.65
2018-01-21T20:43:07.159Z,9.73
2018-01-21T20:45:35.577Z,8.97
2018-01-21T20:48:02.794Z,7.90
2018-01-21T20:50:32.803Z,7.87
2018-01-21T20:53:04.998Z,7.57
2018-01-21T20:55:32.691Z,8.00
2018-01-21T20:57:58.740Z,8.27
2018-01-21T21:00:25.598Z,7.25
2018-01-21T21:02:51.973Z,8.07
2018-01-21T21:05:20.278Z,7.50
2018-01-21T21:07:49.606Z,7.37
2018-01-21T21:10:16.548Z,8.07
2018-01-21T21:12:47.928Z,8.48
2018-01-21T21:15:16.036Z,7.90
2018-01-21T21:17:43.784Z,8.80
2018-01-21T21:20:11.414Z,8.25
2018-01-21T21:22:43.918Z,9.00
2018-01-21T21:25:09.969Z,8.90
2018-01-21T21:27:37.788Z,9.80
2018-01-21T21:37:39.100Z,9.15
2018-01-21T21:40:06.834Z,9.68
2018-01-21T21:42:34.754Z,8.77
2018-01-21T21:45:00.982Z,10.27
2018-01-21T21:52:31.039Z,7.93
2018-01-21T21:54:58.717Z,8.77
2018-01-21T21:57:25.645Z,8.80
2018-01-21T21:59:52.451Z,10.37
2018-01-21T22:02:21.800Z,10.43
2018-01-21T22:07:32.110Z,9.80
2018-01-21T22:10:02.185Z,8.80
2018-01-21T22:15:04.601Z,9.10
2018-01-21T22:20:03.864Z,9.63
2018-01-21T22:25:01.917Z,8.90
2018-01-21T22:27:29.205Z,8.52
2018-01-21T22:29:56.641Z,8.38
2018-01-21T22:32:23.702Z,7.95
2018-01-21T22:34:50.825Z,7.37
2018-01-21T22:37:19.271Z,8.73
2018-01-21T22:39:48.727Z,7.95
2018-01-21T22:42:19.393Z,7.97
2018-01-21T22:44:46.301Z,8.75
2018-01-21T22:47:14.059Z,9.10
2018-01-21T22:49:41.321Z,9.48
2018-01-21T22:57:19.672Z,8.93
2018-01-21T22:59:46.294Z,9.70
2018-01-21T23:02:13.591Z,11.02
2018-01-21T23:04:43.562Z,9.90
2018-01-21T23:07:16.605Z,8.60
2018-01-21T23:09:48.097Z,9.98
2018-01-21T23:12:21.037Z,8.93
2018-01-21T23:14:51.390Z,8.68
2018-01-21T23:17:21.883Z,8.82
2018-01-21T23:19:49.709Z,9.05
2018-01-21T23:22:18.947Z,7.90
2018-01-21T23:24:46.157Z,7.80
2018-01-21T23:27:12.186Z,8.27
2018-01-21T23:29:44.239Z,7.10
2018-01-21T23:34:44.504Z,7.60
2018-01-21T23:37:15.217Z,8.15
2018-01-21T23:39:42.508Z,7.68
2018-01-21T23:42:10.171Z,7.68
2018-01-21T23:44:38.839Z,7.55
2018-01-21T23:47:05.917Z,8.20
2018-01-21T23:49:34.434Z,7.20
2018-01-21T23:57:12.620Z,7.07
2018-01-21T23:59:40.268Z,7.85
